createdAt,value
2022-11-28T00:28:17.876Z,33.90
2022-11-28T00:58:21.005Z,33.23
2022-11-28T01:28:23.989Z,35.93
2022-11-28T01:58:27.232Z,38.27
2022-11-28T02:28:30.650Z,39.50
2022-11-28T02:58:33.533Z,41.93
2022-11-28T03:28:42.028Z,43.25
2022-11-28T03:58:46.371Z,37.58
2022-11-28T04:28:49.833Z,32.10
2022-11-28T04:58:52.786Z,40.03
2022-11-28T05:28:57.643Z,34.00
2022-11-28T05:59:00.697Z,28.45
2022-11-28T06:29:04.831Z,27.78
2022-11-28T06:59:07.844Z,31.50
2022-11-28T07:29:11.656Z,25.10
2022-11-28T07:59:14.522Z,28.97
2022-11-28T08:29:18.448Z,28.33
2022-11-28T08:59:21.537Z,26.27
2022-11-28T09:29:25.770Z,25.80
2022-11-28T09:59:28.850Z,25.65
2022-11-28T10:29:33.249Z,22.87
2022-11-28T10:59:36.100Z,25.80
2022-11-28T11:29:39.315Z,26.03
2022-11-28T11:59:42.851Z,19.33
2022-11-28T12:29:46.865Z,22.37
2022-11-28T12:59:50.138Z,22.97
2022-11-28T13:29:53.465Z,23.83
2022-11-28T13:59:56.396Z,17.05
2022-11-28T14:29:59.409Z,18.87
2022-11-28T15:00:02.570Z,22.40
2022-11-28T15:30:05.675Z,21.77
2022-11-28T16:00:08.730Z,23.78
2022-11-28T16:30:12.313Z,19.28
2022-11-28T17:00:15.287Z,27.73
2022-11-28T17:30:18.937Z,21.30
2022-11-28T18:00:21.795Z,27.67
2022-11-28T18:30:26.363Z,21.67
2022-11-28T19:00:29.274Z,26.93
2022-11-28T19:30:33.985Z,24.80
2022-11-28T20:00:36.907Z,22.00
2022-11-28T20:30:41.112Z,18.85
2022-11-28T21:00:44.055Z,22.67
2022-11-28T21:30:48.044Z,20.48
2022-11-28T22:00:54.108Z,22.93
2022-11-28T22:30:58.025Z,17.90
2022-11-28T23:01:01.139Z,26.90
2022-11-28T23:31:04.736Z,20.90
